createdAt,value
2018-10-05T00:00:32.674Z,9.76
2018-10-05T00:03:03.437Z,9.54
2018-10-05T00:05:34.749Z,9.75
2018-10-05T00:08:05.475Z,9.70
2018-10-05T00:10:36.981Z,9.70
2018-10-05T00:13:07.602Z,9.66
2018-10-05T00:15:38.609Z,9.62
2018-10-05T00:18:09.356Z,9.62
2018-10-05T00:20:40.851Z,9.62
2018-10-05T00:23:11.586Z,9.58
2018-10-05T00:25:42.536Z,9.58
2018-10-05T00:28:13.650Z,9.56
2018-10-05T00:30:45.084Z,9.54
2018-10-05T00:33:15.601Z,9.52
2018-10-05T00:35:47.373Z,9.52
2018-10-05T00:38:17.573Z,9.46
2018-10-05T00:40:48.556Z,9.44
2018-10-05T00:43:19.547Z,9.40
2018-10-05T00:45:50.918Z,9.36
2018-10-05T00:48:21.542Z,9.35
2018-10-05T00:50:52.445Z,9.38
2018-10-05T00:53:23.648Z,9.29
2018-10-05T00:55:54.646Z,9.29
2018-10-05T00:58:25.400Z,9.22
2018-10-05T01:00:56.848Z,9.17
2018-10-05T01:03:26.610Z,9.19
2018-10-05T01:05:57.608Z,9.15
2018-10-05T01:08:28.377Z,9.12
2018-10-05T01:10:59.761Z,8.93
2018-10-05T01:13:30.594Z,9.12
2018-10-05T01:16:01.955Z,9.02
2018-10-05T01:18:31.680Z,8.99
2018-10-05T01:21:02.618Z,8.55
2018-10-05T01:23:33.316Z,9.03
2018-10-05T01:26:04.838Z,9.01
2018-10-05T01:28:35.501Z,9.00
2018-10-05T01:31:06.405Z,9.01
2018-10-05T01:33:37.608Z,8.98
2018-10-05T01:36:08.500Z,8.95
2018-10-05T01:38:39.482Z,8.96
2018-10-05T01:41:14.601Z,8.89
2018-10-05T01:45:08.649Z,8.83
2018-10-05T01:47:38.862Z,8.75
2018-10-05T01:50:08.862Z,8.73
2018-10-05T01:52:38.793Z,8.73
2018-10-05T01:55:08.616Z,8.70
2018-10-05T01:57:38.697Z,8.69
2018-10-05T02:00:08.826Z,8.68
2018-10-05T02:02:38.690Z,8.64
2018-10-05T02:05:09.148Z,8.63
2018-10-05T02:07:38.869Z,8.58
2018-10-05T02:10:08.689Z,8.53
2018-10-05T02:12:38.769Z,8.50
2018-10-05T02:15:09.236Z,8.47
2018-10-05T02:17:39.052Z,8.45
2018-10-05T02:20:08.832Z,8.42
2018-10-05T02:22:38.657Z,8.41
2018-10-05T02:25:08.735Z,8.37
2018-10-05T02:27:38.759Z,8.33
2018-10-05T02:30:09.029Z,8.30
2018-10-05T02:32:38.934Z,8.27
2018-10-05T02:35:08.753Z,8.24
2018-10-05T02:37:38.680Z,8.22
2018-10-05T02:40:08.698Z,8.20
2018-10-05T02:42:38.826Z,8.08
2018-10-05T02:45:08.694Z,8.12
2018-10-05T02:47:38.705Z,8.08
2018-10-05T02:50:08.718Z,8.05
2018-10-05T02:52:38.569Z,8.01
2018-10-05T02:55:08.719Z,7.98
2018-10-05T02:57:38.558Z,7.96
2018-10-05T03:00:18.235Z,7.93
2018-10-05T03:02:47.981Z,7.90
2018-10-05T03:05:17.697Z,7.86
2018-10-05T03:07:47.717Z,7.83
2018-10-05T03:10:17.603Z,7.80
2018-10-05T03:12:47.680Z,7.77
2018-10-05T03:15:25.148Z,7.74
2018-10-05T03:17:55.063Z,7.72
2018-10-05T03:20:24.802Z,7.69
2018-10-05T03:22:54.644Z,7.55
2018-10-05T03:25:24.621Z,7.62
2018-10-05T03:27:54.587Z,7.61
2018-10-05T03:30:24.705Z,7.58
2018-10-05T03:32:54.572Z,7.55
2018-10-05T03:35:24.697Z,7.45
2018-10-05T03:37:54.533Z,7.50
2018-10-05T03:40:24.654Z,7.48
2018-10-05T03:42:54.711Z,7.46
2018-10-05T03:45:24.673Z,7.44
2018-10-05T03:47:54.729Z,7.39
2018-10-05T03:50:24.532Z,7.38
2018-10-05T03:52:54.644Z,7.36
2018-10-05T03:55:24.733Z,7.33
2018-10-05T03:57:54.758Z,7.30
2018-10-05T04:00:24.683Z,7.26
2018-10-05T04:02:54.557Z,7.24
2018-10-05T04:05:24.632Z,7.23
2018-10-05T04:07:54.733Z,7.21
2018-10-05T04:10:24.852Z,7.17
2018-10-05T04:12:54.803Z,7.17
2018-10-05T04:15:24.564Z,7.13
2018-10-05T04:17:54.648Z,7.11
2018-10-05T04:20:24.729Z,7.09
2018-10-05T04:22:54.618Z,7.07
2018-10-05T04:25:24.736Z,7.04
2018-10-05T04:27:54.578Z,7.02
2018-10-05T04:30:24.710Z,6.99
2018-10-05T04:32:54.601Z,6.97
2018-10-05T04:35:24.669Z,6.94
2018-10-05T04:37:54.620Z,6.92
2018-10-05T04:40:24.636Z,6.91
2018-10-05T04:42:54.656Z,6.90
2018-10-05T04:45:24.853Z,6.87
2018-10-05T04:47:54.729Z,6.85
2018-10-05T04:50:26.321Z,6.82
2018-10-05T04:52:56.024Z,6.81
2018-10-05T04:55:25.747Z,6.80
2018-10-05T04:57:55.681Z,6.70
2018-10-05T05:00:25.526Z,6.71
2018-10-05T05:02:55.825Z,6.70
2018-10-05T05:05:25.642Z,6.72
2018-10-05T05:07:55.572Z,6.68
2018-10-05T05:10:25.717Z,6.66
2018-10-05T05:12:55.563Z,6.65
2018-10-05T05:15:25.709Z,6.64
2018-10-05T05:17:55.554Z,6.62
2018-10-05T05:20:25.661Z,6.62
2018-10-05T05:22:55.572Z,6.62
2018-10-05T05:25:25.544Z,6.62
2018-10-05T05:27:55.702Z,6.62
2018-10-05T05:30:25.466Z,6.62
2018-10-05T05:32:55.561Z,6.63
2018-10-05T05:35:25.390Z,6.66
2018-10-05T05:37:55.427Z,6.67
2018-10-05T05:40:25.609Z,6.69
2018-10-05T05:42:55.821Z,6.73
2018-10-05T05:45:26.005Z,6.76
2018-10-05T05:47:56.052Z,6.81
2018-10-05T05:50:26.314Z,6.81
2018-10-05T05:52:57.180Z,6.84
2018-10-05T05:55:27.543Z,6.86
2018-10-05T05:57:57.633Z,6.96
2018-10-05T06:00:27.729Z,6.93
2018-10-05T06:02:57.780Z,6.95
2018-10-05T06:05:27.910Z,6.95
2018-10-05T06:07:57.931Z,7.04
2018-10-05T06:10:28.387Z,7.11
2018-10-05T06:12:58.413Z,7.16
2018-10-05T06:15:28.772Z,7.20
2018-10-05T06:17:59.546Z,7.24
2018-10-05T06:20:30.706Z,7.31
2018-10-05T06:23:01.537Z,7.35
2018-10-05T06:25:32.328Z,7.42
2018-10-05T06:28:03.655Z,7.43
2018-10-05T06:30:34.393Z,7.59
2018-10-05T06:33:05.751Z,7.72
2018-10-05T06:35:36.625Z,7.86
2018-10-05T06:38:07.469Z,7.97
2018-10-05T06:40:38.581Z,8.04
2018-10-05T06:43:10.122Z,8.19
2018-10-05T06:45:40.681Z,8.27
2018-10-05T06:48:11.484Z,8.39
2018-10-05T06:50:42.257Z,8.48
2018-10-05T06:53:13.766Z,8.60
2018-10-05T06:55:44.554Z,8.75
2018-10-05T06:58:15.592Z,8.82
2018-10-05T07:00:46.385Z,8.94
2018-10-05T07:03:17.713Z,9.11
2018-10-05T07:05:48.489Z,9.06
2018-10-05T07:08:19.723Z,9.36
2018-10-05T07:10:50.494Z,9.50
2018-10-05T07:13:21.368Z,9.66
2018-10-05T07:15:53.625Z,9.78
2018-10-05T07:18:23.641Z,9.94
2018-10-05T07:20:53.401Z,10.02
2018-10-05T07:23:24.654Z,10.16
2018-10-05T07:25:55.436Z,10.45
2018-10-05T07:28:26.908Z,10.50
2018-10-05T07:30:57.717Z,10.52
2018-10-05T07:33:28.832Z,10.72
2018-10-05T07:35:59.748Z,10.86
2018-10-05T07:38:30.749Z,10.98
2018-10-05T07:41:01.534Z,11.18
2018-10-05T07:43:32.426Z,11.33
2018-10-05T07:46:03.756Z,11.51
2018-10-05T07:48:34.822Z,11.60
2018-10-05T07:51:05.592Z,11.74
2018-10-05T07:53:36.420Z,11.90
2018-10-05T07:56:07.932Z,12.06
2018-10-05T07:58:38.818Z,12.20
2018-10-05T08:01:09.576Z,12.19
2018-10-05T08:03:40.581Z,12.48
2018-10-05T08:06:11.581Z,12.73
2018-10-05T08:08:42.710Z,12.83
2018-10-05T08:11:13.472Z,12.81
2018-10-05T08:13:44.725Z,13.18
2018-10-05T08:16:15.433Z,13.29
2018-10-05T08:18:46.661Z,13.44
2018-10-05T08:21:17.368Z,13.59
2018-10-05T08:23:48.729Z,13.78
2018-10-05T08:26:19.958Z,13.95
2018-10-05T08:28:51.045Z,14.10
2018-10-05T08:31:21.674Z,14.27
2018-10-05T08:33:52.940Z,14.42
2018-10-05T08:36:23.829Z,14.58
2018-10-05T08:38:54.998Z,14.07
2018-10-05T08:41:25.784Z,14.82
2018-10-05T08:43:56.891Z,14.92
2018-10-05T08:46:27.644Z,15.05
2018-10-05T08:48:58.671Z,15.20
2018-10-05T08:51:29.597Z,15.31
2018-10-05T08:54:01.063Z,15.50
2018-10-05T08:56:32.917Z,15.65
2018-10-05T08:59:02.845Z,15.77
2018-10-05T09:01:33.465Z,15.95
2018-10-05T09:04:04.905Z,16.11
2018-10-05T09:06:35.516Z,16.16
2018-10-05T09:09:08.416Z,16.36
2018-10-05T09:11:38.170Z,16.46
2018-10-05T09:14:09.032Z,16.51
2018-10-05T09:16:39.590Z,16.65
2018-10-05T09:19:10.401Z,16.79
2018-10-05T09:21:41.669Z,16.81
2018-10-05T09:24:12.478Z,16.74
2018-10-05T09:26:43.438Z,16.94
2018-10-05T09:29:14.653Z,17.07
2018-10-05T09:31:45.568Z,17.08
2018-10-05T09:34:16.288Z,17.08
2018-10-05T09:36:47.741Z,17.08
2018-10-05T09:39:18.528Z,17.12
2018-10-05T09:41:49.854Z,17.29
2018-10-05T09:44:20.609Z,17.35
2018-10-05T09:46:51.611Z,17.43
2018-10-05T09:49:22.374Z,17.47
2018-10-05T09:51:53.809Z,17.55
2018-10-05T09:54:24.537Z,17.63
2018-10-05T09:56:55.424Z,17.71
2018-10-05T09:59:26.630Z,17.78
2018-10-05T10:02:04.371Z,17.84
2018-10-05T10:04:34.106Z,18.00
2018-10-05T10:07:04.496Z,18.08
2018-10-05T10:09:34.229Z,18.18
2018-10-05T10:12:04.500Z,18.22
2018-10-05T10:14:34.310Z,18.33
2018-10-05T10:17:04.025Z,18.41
2018-10-05T10:19:34.532Z,18.53
2018-10-05T10:22:04.688Z,18.60
2018-10-05T10:24:35.860Z,18.77
2018-10-05T10:27:06.499Z,18.90
2018-10-05T10:29:37.396Z,19.08
2018-10-05T10:32:08.665Z,19.24
2018-10-05T10:34:39.811Z,19.29
2018-10-05T10:37:10.537Z,19.48
2018-10-05T10:39:41.391Z,19.68
2018-10-05T10:42:12.605Z,19.89
2018-10-05T10:44:43.418Z,20.02
2018-10-05T10:47:14.813Z,20.06
2018-10-05T10:49:45.704Z,20.15
2018-10-05T10:52:16.439Z,20.29
2018-10-05T10:54:47.749Z,20.28
2018-10-05T10:57:18.468Z,20.37
2018-10-05T10:59:49.733Z,20.59
2018-10-05T11:02:20.449Z,20.73
2018-10-05T11:04:51.955Z,20.85
2018-10-05T11:07:22.553Z,21.06
2018-10-05T11:09:53.376Z,21.07
2018-10-05T11:12:24.626Z,21.16
2018-10-05T11:14:55.608Z,21.30
2018-10-05T11:17:26.300Z,21.24
2018-10-05T11:19:57.646Z,21.45
2018-10-05T11:22:28.353Z,21.51
2018-10-05T11:24:59.828Z,21.54
2018-10-05T11:27:30.561Z,21.71
2018-10-05T11:30:01.363Z,21.85
2018-10-05T11:32:32.561Z,22.04
2018-10-05T11:35:03.396Z,22.00
2018-10-05T11:37:34.308Z,21.96
2018-10-05T11:40:05.720Z,21.99
2018-10-05T11:42:36.442Z,21.98
2018-10-05T11:45:07.849Z,22.00
2018-10-05T11:47:38.581Z,22.06
2018-10-05T11:50:09.780Z,22.17
2018-10-05T11:52:40.500Z,22.02
2018-10-05T11:55:11.654Z,22.21
2018-10-05T11:57:41.397Z,22.31
2018-10-05T12:00:12.862Z,22.39
2018-10-05T12:02:43.737Z,22.23
2018-10-05T12:05:18.568Z,22.27
2018-10-05T12:07:49.289Z,22.21
2018-10-05T12:10:19.149Z,22.25
2018-10-05T12:12:49.316Z,22.37
2018-10-05T12:15:19.373Z,22.62
2018-10-05T12:17:49.730Z,22.65
2018-10-05T12:20:20.873Z,22.28
2018-10-05T12:22:51.576Z,22.39
2018-10-05T12:25:22.557Z,22.41
2018-10-05T12:27:53.442Z,22.73
2018-10-05T12:30:24.426Z,22.79
2018-10-05T12:32:55.821Z,22.70
2018-10-05T12:35:26.933Z,22.65
2018-10-05T12:37:57.497Z,22.74
2018-10-05T12:40:28.861Z,22.75
2018-10-05T12:42:59.578Z,22.72
2018-10-05T12:45:30.458Z,22.62
2018-10-05T12:48:01.341Z,22.78
2018-10-05T12:50:32.714Z,22.97
2018-10-05T12:53:03.652Z,22.92
2018-10-05T12:55:34.781Z,22.96
2018-10-05T12:58:04.588Z,22.86
2018-10-05T13:00:35.588Z,22.76
2018-10-05T13:03:06.318Z,22.80
2018-10-05T13:05:37.654Z,22.78
2018-10-05T13:08:08.445Z,22.53
2018-10-05T13:10:40.058Z,22.52
2018-10-05T13:13:10.521Z,22.60
2018-10-05T13:15:41.424Z,22.78
2018-10-05T13:18:12.473Z,22.80
2018-10-05T13:20:43.428Z,22.89
2018-10-05T13:23:14.455Z,22.98
2018-10-05T13:25:45.644Z,22.91
2018-10-05T13:28:16.408Z,22.93
2018-10-05T13:30:47.840Z,23.01
2018-10-05T13:33:19.151Z,23.06
2018-10-05T13:35:49.797Z,23.00
2018-10-05T13:38:20.787Z,22.86
2018-10-05T13:40:51.738Z,22.95
2018-10-05T13:43:22.469Z,23.06
2018-10-05T13:45:53.969Z,23.14
2018-10-05T13:48:24.746Z,23.07
2018-10-05T13:50:55.761Z,22.89
2018-10-05T13:53:26.519Z,22.89
2018-10-05T13:55:57.805Z,22.75
2018-10-05T13:58:28.511Z,22.96
2018-10-05T14:01:00.373Z,22.95
2018-10-05T14:03:30.320Z,22.92
2018-10-05T14:06:01.751Z,22.81
2018-10-05T14:08:32.658Z,22.80
2018-10-05T14:11:03.771Z,22.86
2018-10-05T14:13:34.731Z,23.01
2018-10-05T14:16:05.813Z,22.83
2018-10-05T14:18:36.729Z,22.46
2018-10-05T14:21:07.714Z,22.21
2018-10-05T14:23:39.441Z,22.44
2018-10-05T14:26:09.590Z,22.55
2018-10-05T14:28:40.368Z,22.32
2018-10-05T14:31:12.036Z,22.24
2018-10-05T14:33:43.365Z,22.34
2018-10-05T14:36:14.192Z,22.30
2018-10-05T14:38:45.782Z,22.39
2018-10-05T14:41:16.955Z,22.43
2018-10-05T14:43:47.230Z,22.34
2018-10-05T14:46:17.938Z,22.06
2018-10-05T14:48:49.017Z,21.97
2018-10-05T14:51:19.727Z,22.03
2018-10-05T14:53:50.495Z,22.10
2018-10-05T14:56:21.432Z,22.12
2018-10-05T14:58:52.763Z,22.04
2018-10-05T15:01:23.584Z,21.89
2018-10-05T15:03:54.344Z,21.54
2018-10-05T15:06:25.812Z,21.64
2018-10-05T15:08:56.581Z,21.59
2018-10-05T15:11:27.601Z,21.68
2018-10-05T15:13:58.919Z,21.60
2018-10-05T15:16:29.736Z,21.47
2018-10-05T15:19:00.413Z,21.61
2018-10-05T15:21:31.413Z,21.52
2018-10-05T15:24:02.355Z,21.56
2018-10-05T15:26:33.698Z,21.37
2018-10-05T15:29:04.433Z,21.30
2018-10-05T15:31:35.413Z,21.16
2018-10-05T15:34:06.262Z,21.09
2018-10-05T15:36:37.649Z,21.02
2018-10-05T15:39:09.569Z,20.76
2018-10-05T15:41:39.894Z,20.84
2018-10-05T15:44:10.494Z,20.79
2018-10-05T15:46:58.935Z,20.67
2018-10-05T15:49:29.924Z,20.51
2018-10-05T15:52:00.366Z,20.59
2018-10-05T15:54:30.424Z,20.51
2018-10-05T15:57:00.554Z,20.43
2018-10-05T15:59:31.284Z,20.38
2018-10-05T16:02:01.376Z,20.16
2018-10-05T16:04:31.739Z,20.21
2018-10-05T16:07:01.494Z,20.12
2018-10-05T16:09:31.307Z,20.02
2018-10-05T16:12:01.165Z,19.86
2018-10-05T16:14:31.129Z,19.80
2018-10-05T16:17:01.187Z,19.79
2018-10-05T16:19:31.056Z,19.83
2018-10-05T16:22:10.945Z,19.75
2018-10-05T16:24:42.286Z,19.69
2018-10-05T16:27:13.278Z,19.74
2018-10-05T16:29:43.374Z,19.72
2018-10-05T16:32:13.746Z,19.66
2018-10-05T16:34:44.167Z,19.64
2018-10-05T16:37:14.203Z,19.46
2018-10-05T16:39:44.324Z,19.37
2018-10-05T16:42:14.106Z,19.16
2018-10-05T16:44:44.720Z,19.11
2018-10-05T16:47:14.573Z,18.96
2018-10-05T16:49:44.634Z,18.96
2018-10-05T16:52:14.629Z,18.80
2018-10-05T16:54:44.372Z,18.77
2018-10-05T16:57:14.144Z,18.50
2018-10-05T16:59:44.178Z,18.48
2018-10-05T17:02:14.417Z,18.43
2018-10-05T17:04:44.285Z,18.29
2018-10-05T17:07:14.033Z,18.31
2018-10-05T17:09:44.585Z,18.30
2018-10-05T17:12:15.397Z,18.21
2018-10-05T17:14:46.569Z,18.11
2018-10-05T17:17:17.422Z,18.06
2018-10-05T17:19:48.398Z,18.07
2018-10-05T17:22:19.860Z,18.01
2018-10-05T17:24:50.507Z,17.88
2018-10-05T17:27:21.371Z,17.82
2018-10-05T17:29:52.719Z,17.71
2018-10-05T17:32:23.710Z,17.48
2018-10-05T17:34:54.492Z,17.70
2018-10-05T17:37:26.112Z,17.62
2018-10-05T17:39:56.630Z,17.58
2018-10-05T17:42:27.468Z,17.42
2018-10-05T17:44:58.366Z,17.38
2018-10-05T17:47:29.558Z,17.28
2018-10-05T17:50:00.454Z,17.24
2018-10-05T17:52:31.886Z,17.22
2018-10-05T17:55:02.921Z,17.19
2018-10-05T17:57:33.693Z,17.19
2018-10-05T18:00:04.926Z,17.16
2018-10-05T18:02:35.965Z,17.12
2018-10-05T18:05:06.537Z,17.02
2018-10-05T18:07:37.530Z,16.98
2018-10-05T18:10:08.504Z,17.09
2018-10-05T18:12:40.214Z,17.01
2018-10-05T18:15:10.743Z,16.89
2018-10-05T18:17:42.518Z,16.86
2018-10-05T18:20:12.311Z,16.80
2018-10-05T18:22:43.562Z,16.71
2018-10-05T18:25:14.297Z,16.69
2018-10-05T18:27:45.961Z,16.63
2018-10-05T18:30:16.876Z,16.59
2018-10-05T18:32:47.794Z,15.42
2018-10-05T18:35:18.577Z,16.48
2018-10-05T18:37:49.433Z,16.44
2018-10-05T18:40:21.161Z,16.40
2018-10-05T18:42:51.738Z,16.30
2018-10-05T18:45:22.697Z,16.14
2018-10-05T18:47:53.717Z,16.06
2018-10-05T18:50:24.738Z,16.00
2018-10-05T18:52:56.701Z,15.92
2018-10-05T18:55:29.434Z,15.84
2018-10-05T18:58:00.649Z,15.55
2018-10-05T19:00:30.471Z,15.62
2018-10-05T19:03:00.362Z,15.69
2018-10-05T19:05:30.766Z,15.38
2018-10-05T19:08:01.595Z,15.14
2018-10-05T19:10:32.555Z,15.34
2018-10-05T19:13:03.602Z,15.26
2018-10-05T19:15:34.641Z,15.29
2018-10-05T19:18:05.514Z,14.82
2018-10-05T19:20:36.691Z,14.87
2018-10-05T19:23:07.561Z,14.95
2018-10-05T19:25:37.578Z,14.95
2018-10-05T19:28:08.440Z,14.94
2018-10-05T19:30:40.728Z,14.87
2018-10-05T19:33:10.553Z,14.68
2018-10-05T19:35:41.436Z,14.57
2018-10-05T19:38:12.828Z,14.23
2018-10-05T19:40:43.890Z,14.05
2018-10-05T19:43:14.937Z,14.11
2018-10-05T19:45:45.901Z,14.17
2018-10-05T19:48:16.606Z,14.14
2018-10-05T19:50:47.672Z,14.13
2018-10-05T19:53:18.674Z,14.16
2018-10-05T19:55:49.764Z,14.08
2018-10-05T19:58:20.602Z,13.84
2018-10-05T20:00:51.650Z,13.83
2018-10-05T20:03:22.457Z,13.49
2018-10-05T20:05:54.112Z,13.52
2018-10-05T20:08:24.725Z,13.45
2018-10-05T20:10:56.170Z,13.24
2018-10-05T20:13:27.559Z,13.45
2018-10-05T20:15:57.526Z,13.51
2018-10-05T20:18:28.920Z,13.55
2018-10-05T20:20:59.945Z,13.52
2018-10-05T20:23:30.656Z,13.53
2018-10-05T20:26:01.530Z,13.49
2018-10-05T20:28:32.373Z,13.50
2018-10-05T20:31:04.354Z,13.46
2018-10-05T20:33:34.601Z,13.41
2018-10-05T20:36:05.781Z,13.38
2018-10-05T20:38:36.583Z,13.37
2018-10-05T20:41:07.627Z,13.26
2018-10-05T20:43:38.508Z,13.25
2018-10-05T20:46:09.610Z,13.23
2018-10-05T20:48:40.473Z,13.10
2018-10-05T20:51:11.539Z,13.15
2018-10-05T20:53:42.354Z,13.10
2018-10-05T20:56:13.807Z,13.05
2018-10-05T20:58:44.557Z,13.00
2018-10-05T21:01:15.456Z,12.94
2018-10-05T21:03:46.633Z,12.89
2018-10-05T21:06:17.427Z,12.84
2018-10-05T21:08:48.661Z,12.82
2018-10-05T21:11:19.533Z,12.78
2018-10-05T21:13:51.364Z,12.75
2018-10-05T21:16:21.679Z,12.67
2018-10-05T21:18:52.518Z,12.60
2018-10-05T21:21:23.510Z,12.50
2018-10-05T21:23:54.472Z,12.49
2018-10-05T21:26:25.645Z,12.55
2018-10-05T21:28:56.649Z,12.42
2018-10-05T21:31:27.692Z,12.36
2018-10-05T21:33:58.571Z,12.19
2018-10-05T21:36:30.490Z,11.34
2018-10-05T21:39:00.324Z,11.83
2018-10-05T21:41:32.170Z,11.73
2018-10-05T21:44:02.723Z,11.66
2018-10-05T21:46:33.762Z,11.76
2018-10-05T21:49:06.008Z,11.76
2018-10-05T21:51:36.136Z,11.73
2018-10-05T21:54:06.629Z,11.58
2018-10-05T21:56:37.494Z,11.60
2018-10-05T21:59:08.723Z,11.46
2018-10-05T22:01:39.669Z,11.38
2018-10-05T22:04:10.541Z,11.39
2018-10-05T22:06:41.453Z,10.98
2018-10-05T22:09:12.154Z,10.81
2018-10-05T22:11:42.934Z,10.90
2018-10-05T22:14:13.648Z,10.94
2018-10-05T22:16:44.606Z,10.99
2018-10-05T22:19:15.382Z,11.08
2018-10-05T22:21:46.822Z,11.05
2018-10-05T22:24:18.585Z,11.03
2018-10-05T22:26:48.717Z,10.94
2018-10-05T22:29:19.737Z,11.01
2018-10-05T22:31:50.632Z,10.91
2018-10-05T22:34:21.398Z,11.01
2018-10-05T22:36:52.705Z,10.97
2018-10-05T22:39:23.425Z,10.96
2018-10-05T22:41:55.007Z,11.02
2018-10-05T22:44:25.593Z,10.91
2018-10-05T22:46:56.985Z,9.53
2018-10-05T22:49:27.539Z,10.77
2018-10-05T22:51:59.122Z,10.51
2018-10-05T22:54:29.740Z,10.52
2018-10-05T22:57:00.673Z,10.61
2018-10-05T22:59:31.426Z,10.68
2018-10-05T23:02:02.705Z,10.78
2018-10-05T23:04:32.486Z,10.73
2018-10-05T23:07:03.388Z,10.48
2018-10-05T23:09:34.692Z,10.59
2018-10-05T23:12:05.634Z,10.54
2018-10-05T23:14:36.533Z,10.45
2018-10-05T23:17:06.889Z,10.44
2018-10-05T23:19:37.865Z,10.34
2018-10-05T23:22:09.125Z,10.23
2018-10-05T23:24:39.649Z,10.26
2018-10-05T23:27:10.578Z,10.19
2018-10-05T23:29:41.414Z,10.19
2018-10-05T23:32:12.774Z,10.13
2018-10-05T23:34:43.546Z,10.21
2018-10-05T23:37:14.417Z,10.28
2018-10-05T23:39:45.722Z,10.30
2018-10-05T23:42:16.628Z,10.15
2018-10-05T23:44:47.417Z,10.18
2018-10-05T23:47:18.788Z,10.23
2018-10-05T23:49:49.557Z,10.13
2018-10-05T23:52:56.229Z,10.03
2018-10-05T23:55:25.984Z,9.98
2018-10-05T23:57:55.928Z,10.04
